Flight Track Log - Related Links

Times and Time Zones

All times are in EDT time to prevent confusion due to time zone crossing. See the N700XF flight status page for this flight to view local times or setup timezone preferences in your user account.

Time Position Orientation Groundspeed Altitude Reporting Facility
EDT Latitude Longitude Course Direction KTS MPH feet Rate Location/Type
Mon 05:56:19 PM 39.0442 -77.6256 307° West 276 318 6,300  Level Washington Center
Mon 05:57:20 PM 39.1081 -77.6700 332° Northwest 283 326 10,200 3,541 Climbing Washington Center
Mon 05:58:21 PM 39.1867 -77.7072 340° North 277 319 13,500 2,650 Climbing Washington Center
Mon 05:59:20 PM 39.2653 -77.7361 344° North 286 329 15,500 1,916 Climbing Washington Center
Mon 06:00:00 PM 39.4356 -77.5795 348° North  Level FlightAware Approximate
Mon 06:00:20 PM 39.3522 -77.7764 340° North 310 357 17,300  Level Washington Center
Mon 06:01:20 PM 39.4431 -77.8167 341° North 326 375 18,000 353 Climbing Washington Center
Mon 06:02:19 PM 39.5297 -77.8678 336° Northwest 338 389 18,000  Level Washington Center
Mon 06:03:19 PM 39.5694 -77.9714 296° West 311 358 18,000  Level Washington Center
Mon 06:05:27 PM 39.6442 -78.2053 293° West 349 402 18,000  Level Cleveland Center
Mon 06:06:27 PM 39.6800 -78.3228 292° West 349 402 18,000  Level Cleveland Center
Mon 06:07:27 PM 39.7156 -78.4403 292° West 349 402 18,000  Level Cleveland Center
Mon 06:08:27 PM 39.7511 -78.5581 291° West 349 402 18,000 -150 Level Cleveland Center
Mon 06:09:27 PM 39.7822 -78.6758 289° West 349 402 17,700 -800 Descending Cleveland Center
Mon 06:10:27 PM 39.8175 -78.7939 291° West 355 409 16,400 -1,300 Descending Cleveland Center
Mon 06:11:27 PM 39.8506 -78.9147 290° West 355 409 15,100 -1,000 Descending Cleveland Center
Mon 06:12:27 PM 39.8858 -79.0356 291° West 355 409 14,400 -950 Descending Cleveland Center
Mon 06:13:27 PM 39.9183 -79.1458 291° West 343 395 13,200 -1,600 Descending Cleveland Center
Mon 06:14:27 PM 39.9533 -79.2750 290° West 335 386 11,200 -1,600 Descending Cleveland Center
Mon 06:15:27 PM 39.9897 -79.3692 297° West 343 395 10,000 -923 Descending Cleveland Center
Mon 06:15:58 PM 40.0175 -79.4283 302° West 324 373 9,800 -800 Descending Cleveland Center
Mon 06:16:27 PM 40.0386 -79.4550 316° Northwest 317 365 9,200 -1,500 Descending Cleveland Center
Mon 06:16:58 PM 40.0642 -79.5008 306° West 264 304 8,300 -1,700 Descending Cleveland Center
Mon 06:17:27 PM 40.0853 -79.5303 313° West 292 336 7,500 -1,753 Descending Cleveland Center
Mon 06:18:27 PM 40.1339 -79.6083 309° West 278 320 5,700 -1,300 Descending Cleveland Center
Mon 06:19:27 PM 40.1867 -79.6889 311° West 278 320 4,900 -450 Descending Cleveland Center
Mon 06:20:27 PM 40.2433 -79.7561 318° Northwest 278 320 4,800 -1,000 Descending Cleveland Center
Mon 06:21:27 PM 40.3000 -79.8100 324° Northwest 266 306 2,900 -1,300 Descending Cleveland Center
Mon 06:22:27 PM 40.3442 -79.8558 322° Northwest 238 274 2,200 -700 Descending Cleveland Center
Mon 06:23:27 PM 40.3569 -79.9047 289° West 163 188 1,500 -700 Descending Cleveland Center
Mon 06:25:00 PM 40.3544 -79.9302 295° West  Level Estimated
Mon 06:32:00 PM 40.3544 -79.9302 123° Southeast  Level Estimated

Login

Don't have an account? Register now (free) for customized features, flight alerts, and more!